Time;durP1;ratioP1;P1;durP2;ratioP2;P2;SDS_P1;SDS_P2;PMS_P1;PMS_P2;Temp;Humidity;BMP_temperature;BMP_pressure;BME280_temperature;BME280_humidity;BME280_pressure;Samples;Min_cycle;Max_cycle;Signal;HPM_P1;HPM_P2
2021/09/27 00:00:40;;;;;;;;;7.50;5.25;;;;;23.92;53.19;101187.63;5024566;28;51159;-56
2021/09/27 00:03:06;;;;;;;;;4.50;4.50;;;;;23.90;52.94;101187.03;5023321;28;51137;-54
2021/09/27 00:05:32;;;;;;;;;6.00;5.00;;;;;23.89;53.36;101180.66;5019488;28;51082;-56
2021/09/27 00:07:58;;;;;;;;;6.75;6.75;;;;;23.89;53.25;101188.13;5024790;28;51524;-57
2021/09/27 00:10:42;;;;;;;;;7.50;5.00;;;;;23.86;53.48;101181.16;5025350;28;51180;-55
2021/09/27 00:13:08;;;;;;;;;6.75;6.75;;;;;23.87;53.49;101180.06;5031071;28;51023;-56
2021/09/27 00:15:39;;;;;;;;;7.75;6.25;;;;;23.87;53.52;101182.00;5026348;28;51014;-56
2021/09/27 00:18:06;;;;;;;;;7.00;7.00;;;;;23.85;53.61;101184.13;5022307;28;51001;-58
2021/09/27 00:20:33;;;;;;;;;9.00;6.00;;;;;23.83;53.45;101178.81;5029340;28;51069;-56
2021/09/27 00:22:59;;;;;;;;;8.50;7.75;;;;;23.83;53.05;101180.75;5033855;28;50997;-56
2021/09/27 00:25:26;;;;;;;;;5.75;5.75;;;;;23.81;53.75;101175.47;5030780;28;51133;-56
2021/09/27 00:27:53;;;;;;;;;5.25;5.00;;;;;23.80;53.31;101164.63;5028204;28;51729;-56
2021/09/27 00:30:20;;;;;;;;;5.75;5.75;;;;;23.79;53.23;101165.72;5024967;28;52629;-56
2021/09/27 00:32:45;;;;;;;;;5.50;5.50;;;;;23.79;53.53;101168.50;5022923;28;51314;-55
2021/09/27 00:35:15;;;;;;;;;5.25;5.00;;;;;23.78;53.45;101175.09;5022736;28;51565;-55
2021/09/27 00:37:41;;;;;;;;;5.50;4.25;;;;;23.77;53.44;101173.41;5031533;28;50969;-57
2021/09/27 00:40:09;;;;;;;;;6.50;6.00;;;;;23.75;53.35;101173.63;5023745;28;51029;-55
2021/09/27 00:42:35;;;;;;;;;4.25;4.25;;;;;23.75;53.74;101178.31;5030049;28;51819;-55
2021/09/27 00:45:01;;;;;;;;;7.00;4.00;;;;;23.73;53.58;101167.50;5025006;28;51807;-58
2021/09/27 00:47:26;;;;;;;;;6.25;5.75;;;;;23.72;53.67;101168.56;5022608;28;51635;-56
2021/09/27 00:49:53;;;;;;;;;4.00;4.00;;;;;23.72;53.50;101174.09;5027245;28;51777;-57
2021/09/27 00:52:19;;;;;;;;;8.75;6.00;;;;;23.71;53.60;101169.66;5030237;28;51351;-56
2021/09/27 00:54:46;;;;;;;;;7.25;6.75;;;;;23.69;53.87;101163.53;5025442;28;51065;-56
2021/09/27 00:57:17;;;;;;;;;4.00;4.00;;;;;23.69;53.64;101168.22;5023518;28;51132;-56
2021/09/27 00:59:48;;;;;;;;;4.75;4.00;;;;;23.68;53.75;101159.09;5033351;28;51161;-56
2021/09/27 01:02:14;;;;;;;;;6.00;5.00;;;;;23.66;53.74;101158.47;5024811;28;51258;-55
2021/09/27 01:04:39;;;;;;;;;6.75;5.50;;;;;23.65;53.90;101165.06;5027074;28;51782;-56
2021/09/27 01:07:05;;;;;;;;;5.50;5.50;;;;;23.63;53.89;101149.78;5027104;28;51270;-57
2021/09/27 01:09:36;;;;;;;;;6.00;6.00;;;;;23.63;53.66;101149.78;5026438;28;51253;-56
2021/09/27 01:12:23;;;;;;;;;5.75;5.75;;;;;23.61;54.01;101147.25;5029805;28;51203;-55
2021/09/27 01:15:04;;;;;;;;;5.25;5.25;;;;;23.60;53.68;101137.28;5026538;28;51327;-55
2021/09/27 01:17:39;;;;;;;;;5.00;5.00;;;;;23.59;54.02;101133.69;5025431;28;51210;-56
2021/09/27 01:20:21;;;;;;;;;6.75;5.75;;;;;23.58;53.92;101134.75;5024808;28;51032;-57
2021/09/27 01:23:20;;;;;;;;;4.50;4.50;;;;;23.56;53.55;101139.66;5031146;28;51176;-57
2021/09/27 01:26:04;;;;;;;;;6.00;5.50;;;;;23.57;53.70;101135.81;5031231;28;51964;-57
2021/09/27 01:29:06;;;;;;;;;5.75;5.75;;;;;23.56;53.88;101139.66;5027450;28;51019;-57
2021/09/27 01:32:09;;;;;;;;;5.00;5.00;;;;;23.54;54.18;101139.03;5024436;28;51330;-57
2021/09/27 01:34:44;;;;;;;;;6.00;5.00;;;;;23.53;53.99;101133.72;5024143;28;51412;-58
2021/09/27 01:37:31;;;;;;;;;5.25;5.25;;;;;23.52;54.16;101141.19;5032085;28;52202;-56
2021/09/27 01:40:24;;;;;;;;;4.75;4.75;;;;;23.52;53.99;101132.91;5020322;28;51085;-57
2021/09/27 01:43:14;;;;;;;;;5.00;5.00;;;;;23.51;54.20;101139.50;5032596;28;51135;-58
2021/09/27 01:45:54;;;;;;;;;5.25;5.00;;;;;23.50;53.68;101126.75;5026798;28;51029;-57
2021/09/27 01:48:27;;;;;;;;;5.00;5.00;;;;;23.50;54.00;101131.44;5017331;28;51873;-57
2021/09/27 01:50:56;;;;;;;;;6.25;5.00;;;;;23.49;54.15;101129.78;5017527;28;51049;-58
2021/09/27 01:53:34;;;;;;;;;6.00;5.00;;;;;23.47;53.95;101120.88;5017739;28;51160;-58
2021/09/27 01:56:11;;;;;;;;;5.50;5.50;;;;;23.47;53.89;101126.41;5019526;28;51199;-56
2021/09/27 01:58:53;;;;;;;;;5.00;5.00;;;;;23.45;53.97;101121.13;5017501;28;52053;-57
2021/09/27 02:01:45;;;;;;;;;5.00;5.00;;;;;23.45;53.89;101118.34;5028633;28;51277;-56
2021/09/27 02:04:33;;;;;;;;;4.50;4.50;;;;;23.43;54.20;101101.13;5020665;28;51355;-55
2021/09/27 02:07:01;;;;;;;;;5.50;5.25;;;;;23.42;53.82;101104.97;5027449;28;51105;-56
2021/09/27 02:09:33;;;;;;;;;4.75;4.50;;;;;23.43;54.01;101100.28;5016113;28;51990;-56
2021/09/27 02:12:07;;;;;;;;;6.50;5.25;;;;;23.40;54.34;101104.38;5033501;28;51279;-56
2021/09/27 02:14:40;;;;;;;;;7.25;6.25;;;;;23.40;53.96;101095.25;5037132;28;51099;-55
2021/09/27 02:17:24;;;;;;;;;5.75;5.75;;;;;23.39;53.77;101097.16;5032846;28;51185;-56
2021/09/27 02:20:08;;;;;;;;;10.75;7.00;;;;;23.38;53.94;101100.16;5035974;28;51748;-57
2021/09/27 02:22:39;;;;;;;;;8.75;5.75;;;;;23.37;54.00;101096.56;5036767;28;51317;-56
2021/09/27 02:25:26;;;;;;;;;5.75;5.50;;;;;23.36;53.92;101094.88;5035492;28;51205;-57
2021/09/27 02:27:52;;;;;;;;;7.00;5.00;;;;;23.35;53.37;101095.97;5029648;28;51171;-57
2021/09/27 02:30:23;;;;;;;;;5.50;5.50;;;;;23.34;54.35;101099.78;5035826;28;51692;-57
2021/09/27 02:33:06;;;;;;;;;6.25;5.75;;;;;23.34;54.25;101105.31;5036595;28;51176;-56
2021/09/27 02:35:41;;;;;;;;;3.75;3.50;;;;;23.34;54.12;101105.31;5035112;28;51059;-57
2021/09/27 02:38:39;;;;;;;;;7.00;6.00;;;;;23.33;54.12;101100.84;5027427;28;51272;-56
2021/09/27 02:41:21;;;;;;;;;5.25;5.00;;;;;23.31;54.29;101103.00;5021557;28;51287;-56
2021/09/27 02:43:47;;;;;;;;;4.00;4.00;;;;;23.30;54.44;101095.81;5017235;28;51307;-55
2021/09/27 02:46:14;;;;;;;;;5.75;4.75;;;;;23.29;54.03;101092.19;5017935;28;51108;-57
2021/09/27 02:48:40;;;;;;;;;5.00;5.00;;;;;23.29;54.21;101085.81;5026010;28;51296;-58
2021/09/27 02:51:09;;;;;;;;;6.50;6.50;;;;;23.28;54.27;101092.44;5035986;28;52122;-56
2021/09/27 02:53:36;;;;;;;;;5.75;5.75;;;;;23.28;54.15;101084.16;5036552;28;51203;-56
2021/09/27 02:56:47;;;;;;;;;6.00;4.50;;;;;23.27;54.02;101090.75;5034388;28;51239;-57
2021/09/27 02:59:29;;;;;;;;;5.00;5.00;;;;;23.26;54.11;101097.38;5031259;28;51137;-56
2021/09/27 03:02:03;;;;;;;;;6.00;6.00;;;;;23.24;54.11;101094.84;5036150;28;52031;-56
2021/09/27 03:04:47;;;;;;;;;5.50;5.25;;;;;23.24;53.90;101091.19;5035423;28;51036;-55
2021/09/27 03:07:21;;;;;;;;;5.25;5.25;;;;;23.21;54.51;101087.00;5035723;28;51011;-56
2021/09/27 03:10:12;;;;;;;;;5.00;5.00;;;;;23.22;54.43;101090.59;5035850;28;51257;-56
2021/09/27 03:12:44;;;;;;;;;5.00;5.00;;;;;23.20;54.40;101087.22;5035820;28;51264;-56
2021/09/27 03:15:53;;;;;;;;;6.25;6.25;;;;;23.21;54.48;101088.91;5034259;28;50899;-56
2021/09/27 03:18:47;;;;;;;;;6.25;5.00;;;;;23.18;54.24;101092.16;4985978;28;52224;-55
2021/09/27 03:21:54;;;;;;;;;6.75;6.25;;;;;23.18;54.27;101089.41;5034320;28;51398;-56
2021/09/27 03:24:41;;;;;;;;;6.75;6.75;;;;;23.16;53.96;101080.50;5027028;28;52014;-56
2021/09/27 03:27:46;;;;;;;;;8.00;5.75;;;;;23.15;54.02;101076.06;5030658;28;51069;-56
2021/09/27 03:30:18;;;;;;;;;5.25;5.25;;;;;23.13;54.15;101086.47;5016577;28;51149;-56
2021/09/27 03:32:53;;;;;;;;;7.50;5.25;;;;;23.13;54.24;101081.78;5016556;28;51212;-57
2021/09/27 03:35:50;;;;;;;;;6.50;6.00;;;;;23.12;53.94;101084.78;5031959;28;51136;-57
2021/09/27 03:38:21;;;;;;;;;6.25;6.25;;;;;23.11;54.33;101080.34;5035328;28;51174;-57
2021/09/27 03:41:14;;;;;;;;;7.50;6.50;;;;;23.10;54.04;101092.47;5035165;28;51130;-57
2021/09/27 03:43:48;;;;;;;;;8.25;6.25;;;;;23.08;54.71;101089.97;5026808;28;51128;-57
2021/09/27 03:46:37;;;;;;;;;6.00;5.00;;;;;23.07;54.12;101092.97;5016005;28;52030;-57
2021/09/27 03:49:11;;;;;;;;;7.25;6.75;;;;;23.07;54.36;101104.84;5016745;28;51558;-57
2021/09/27 03:51:47;;;;;;;;;5.75;4.50;;;;;23.06;54.60;101102.31;5016050;28;51194;-55
2021/09/27 03:54:27;;;;;;;;;9.50;6.00;;;;;23.05;54.27;101104.25;5020241;28;51226;-57
2021/09/27 03:57:00;;;;;;;;;9.00;7.75;;;;;23.04;54.46;101094.28;5015804;28;51016;-57
2021/09/27 03:59:46;;;;;;;;;8.00;5.50;;;;;23.03;54.03;101096.19;5015900;28;51136;-56
2021/09/27 04:02:28;;;;;;;;;5.25;5.25;;;;;23.02;54.18;101102.78;5019413;28;51142;-56
2021/09/27 04:05:11;;;;;;;;;8.75;7.00;;;;;23.02;54.45;101111.06;5021271;28;51105;-57
2021/09/27 04:08:07;;;;;;;;;5.00;5.00;;;;;23.01;54.38;101112.13;5034912;28;52011;-57
2021/09/27 04:10:57;;;;;;;;;6.75;6.75;;;;;23.00;54.59;101104.94;5015812;28;51368;-57
2021/09/27 04:13:22;;;;;;;;;6.50;4.75;;;;;23.00;54.43;101110.44;5016023;28;51185;-56
2021/09/27 04:16:08;;;;;;;;;11.00;5.00;;;;;22.98;54.23;101098.78;5016484;28;51882;-56
2021/09/27 04:18:41;;;;;;;;;7.25;5.75;;;;;22.98;54.49;101098.78;5015076;28;52435;-57
2021/09/27 04:21:31;;;;;;;;;4.75;4.75;;;;;22.97;54.25;101102.63;5014965;28;51231;-57
2021/09/27 04:24:21;;;;;;;;;8.50;5.25;;;;;22.98;54.52;101111.78;5020170;28;51186;-57
2021/09/27 04:27:20;;;;;;;;;6.75;6.75;;;;;22.97;54.80;101110.09;5028279;28;51330;-57
2021/09/27 04:29:57;;;;;;;;;7.50;6.50;;;;;22.95;54.19;101099.28;5029205;28;51811;-56
2021/09/27 04:32:59;;;;;;;;;6.75;6.25;;;;;22.96;54.60;101091.81;5026471;28;51096;-57
2021/09/27 04:35:43;;;;;;;;;7.00;6.00;;;;;22.94;54.64;101089.31;5022186;28;51052;-57
2021/09/27 04:38:11;;;;;;;;;6.00;5.75;;;;;22.94;54.55;101089.31;5025473;28;51251;-57
2021/09/27 04:40:57;;;;;;;;;6.00;6.00;;;;;22.94;54.36;101082.94;5026773;28;51700;-57
2021/09/27 04:43:30;;;;;;;;;6.25;6.00;;;;;22.93;54.57;101093.16;5032968;28;51215;-57
2021/09/27 04:46:18;;;;;;;;;5.50;5.00;;;;;22.92;54.09;101083.16;5034726;28;51049;-56
2021/09/27 04:49:10;;;;;;;;;7.50;6.00;;;;;22.93;54.01;101078.50;5032066;28;51248;-58
2021/09/27 04:51:51;;;;;;;;;5.00;5.00;;;;;22.91;54.32;101086.16;5016620;28;51948;-54
2021/09/27 04:54:53;;;;;;;;;5.25;4.75;;;;;22.91;54.51;101075.09;5025683;28;51378;-57
2021/09/27 04:57:41;;;;;;;;;5.00;5.00;;;;;22.90;53.83;101068.72;5029166;28;51527;-57
2021/09/27 05:00:06;;;;;;;;;6.00;5.75;;;;;22.88;54.00;101065.34;5029474;28;51163;-57
2021/09/27 05:02:52;;;;;;;;;5.25;4.50;;;;;22.88;54.13;101068.13;5034601;28;51028;-56
2021/09/27 05:05:47;;;;;;;;;5.25;4.75;;;;;22.87;53.86;101071.97;5034269;28;51307;-57
2021/09/27 05:08:48;;;;;;;;;4.50;4.50;;;;;22.87;54.04;101058.16;5017317;28;51141;-55
2021/09/27 05:11:25;;;;;;;;;4.50;4.50;;;;;22.88;53.71;101059.84;5011626;28;51209;-56
2021/09/27 05:14:08;;;;;;;;;6.50;6.25;;;;;22.87;53.72;101060.06;5023856;28;51148;-58
2021/09/27 05:17:01;;;;;;;;;6.25;3.50;;;;;22.86;54.33;101055.63;5015165;28;51606;-58
2021/09/27 05:19:45;;;;;;;;;4.00;4.00;;;;;22.85;54.40;101032.69;5024321;28;51355;-58
2021/09/27 05:22:41;;;;;;;;;4.75;4.00;;;;;22.87;53.81;101026.94;5034655;28;51391;-58
2021/09/27 05:25:36;;;;;;;;;3.50;3.00;;;;;22.86;54.47;101033.53;5033904;28;51390;-59
2021/09/27 05:28:29;;;;;;;;;4.75;4.75;;;;;22.88;54.46;101034.13;5015758;28;51426;-58
2021/09/27 05:31:19;;;;;;;;;4.00;4.00;;;;;22.90;54.00;101023.69;5020542;28;51172;-58
2021/09/27 05:34:05;;;;;;;;;7.00;5.00;;;;;22.90;53.81;101037.50;5022479;28;51166;-58
2021/09/27 05:36:54;;;;;;;;;5.00;3.00;;;;;22.91;54.31;101042.78;5028902;28;51216;-57
2021/09/27 05:39:58;;;;;;;;;3.75;3.25;;;;;22.92;54.83;101046.38;5023897;28;51525;-60
2021/09/27 05:42:53;;;;;;;;;4.00;3.00;;;;;22.92;55.03;101052.75;5021606;28;51237;-59
2021/09/27 05:45:34;;;;;;;;;4.00;3.00;;;;;22.93;55.09;101051.72;5019570;28;51071;-58
2021/09/27 05:48:22;;;;;;;;;2.75;2.75;;;;;22.95;54.71;101045.94;5028672;28;52984;-57
2021/09/27 05:51:04;;;;;;;;;4.50;3.00;;;;;22.95;54.88;101019.16;5030358;28;52685;-59
2021/09/27 05:53:53;;;;;;;;;5.00;4.00;;;;;22.96;54.74;101031.91;5028457;28;51330;-58
2021/09/27 05:56:35;;;;;;;;;4.25;3.50;;;;;22.97;54.76;101021.69;5032883;28;51108;-58
2021/09/27 05:59:12;;;;;;;;;5.75;5.00;;;;;22.98;54.84;101017.84;5024553;28;51230;-56
2021/09/27 06:01:54;;;;;;;;;8.25;6.00;;;;;22.99;54.65;101025.88;5027213;28;52210;-58
2021/09/27 06:04:38;;;;;;;;;6.25;4.75;;;;;23.02;54.97;101041.16;5028138;28;51323;-61
2021/09/27 06:07:11;;;;;;;;;3.50;3.50;;;;;23.02;54.95;101028.19;5031008;28;51124;-59
2021/09/27 06:09:55;;;;;;;;;3.00;3.00;;;;;23.02;55.08;101030.94;5029175;28;51181;-59
2021/09/27 06:12:53;;;;;;;;;2.75;2.75;;;;;23.05;55.03;101035.19;5036059;28;51060;-59
2021/09/27 06:15:25;;;;;;;;;4.25;4.25;;;;;23.06;54.90;101036.00;5035642;28;51103;-59
2021/09/27 06:18:19;;;;;;;;;6.00;3.25;;;;;23.06;54.58;101061.72;5036502;28;51193;-57
2021/09/27 06:21:03;;;;;;;;;5.25;4.00;;;;;23.06;54.83;101055.34;5027251;28;52233;-58
2021/09/27 06:23:49;;;;;;;;;4.00;4.00;;;;;23.07;55.02;101077.22;5027361;28;51530;-61
2021/09/27 06:26:17;;;;;;;;;4.00;3.00;;;;;23.10;55.00;101081.44;5030132;28;51375;-61
2021/09/27 06:29:09;;;;;;;;;5.25;3.00;;;;;23.10;55.15;101070.38;5031704;28;52132;-59
2021/09/27 06:31:47;;;;;;;;;4.00;4.00;;;;;23.11;55.31;101072.06;5021516;28;51961;-59
2021/09/27 06:34:20;;;;;;;;;6.25;5.00;;;;;23.12;55.92;101065.44;5026702;28;51074;-58
2021/09/27 06:36:48;;;;;;;;;4.75;4.00;;;;;23.12;55.99;101063.53;5024411;28;51327;-60
2021/09/27 06:39:18;;;;;;;;;7.25;5.25;;;;;23.15;56.36;101062.25;5023312;28;51222;-60
2021/09/27 06:41:47;;;;;;;;;5.25;3.75;;;;;23.16;56.23;101070.28;5020294;28;51241;-61
2021/09/27 06:44:13;;;;;;;;;4.00;3.25;;;;;23.15;56.63;101063.09;5024382;28;51301;-60
2021/09/27 06:46:39;;;;;;;;;5.25;5.00;;;;;23.18;56.60;101067.28;5031021;28;51065;-60
2021/09/27 06:49:06;;;;;;;;;5.25;5.00;;;;;23.19;56.51;101072.56;5027611;28;51509;-61
2021/09/27 06:51:31;;;;;;;;;6.00;4.50;;;;;23.21;56.96;101077.88;5021758;28;51827;-59
2021/09/27 06:53:56;;;;;;;;;7.00;6.00;;;;;23.21;56.75;101078.72;5017854;28;51048;-59
2021/09/27 06:56:22;;;;;;;;;3.00;3.00;;;;;23.23;56.54;101075.69;5025337;28;51016;-59
2021/09/27 06:58:47;;;;;;;;;5.75;5.75;;;;;23.23;56.64;101062.72;5032050;28;51087;-58
2021/09/27 07:01:12;;;;;;;;;7.50;5.50;;;;;23.24;56.17;101045.09;5032167;28;51916;-59
2021/09/27 07:03:38;;;;;;;;;3.75;3.50;;;;;23.24;56.12;101041.47;5021106;28;51141;-59
2021/09/27 07:06:03;;;;;;;;;5.50;5.00;;;;;23.26;56.42;101053.16;5025362;28;51160;-59
2021/09/27 07:08:29;;;;;;;;;6.00;4.50;;;;;23.27;55.75;101054.81;5015571;28;51151;-60
2021/09/27 07:10:54;;;;;;;;;7.00;5.00;;;;;23.27;55.67;101057.59;5015346;28;52714;-58
2021/09/27 07:13:21;;;;;;;;;4.00;3.25;;;;;23.27;55.67;101066.72;5034922;28;51831;-59
2021/09/27 07:15:47;;;;;;;;;5.75;5.75;;;;;23.27;55.61;101065.88;5027206;28;51203;-58
2021/09/27 07:18:13;;;;;;;;;3.00;3.00;;;;;23.26;55.36;101064.19;5016499;28;51081;-59
2021/09/27 07:20:39;;;;;;;;;4.00;3.00;;;;;23.27;55.81;101063.13;5021106;28;51805;-59
2021/09/27 07:23:05;;;;;;;;;5.50;4.25;;;;;23.26;55.26;101073.34;5024810;28;51552;-58
2021/09/27 07:25:33;;;;;;;;;6.00;3.00;;;;;23.27;55.35;101069.47;5033585;28;51181;-59
2021/09/27 07:27:59;;;;;;;;;4.50;3.75;;;;;23.27;54.86;101063.13;5028733;28;51145;-59
2021/09/27 07:30:26;;;;;;;;;6.25;4.00;;;;;23.27;55.11;101065.88;5022329;28;51080;-59
2021/09/27 07:32:52;;;;;;;;;4.25;4.25;;;;;23.25;55.08;101063.34;5027401;28;51279;-58
2021/09/27 07:35:20;;;;;;;;;6.75;6.00;;;;;23.26;55.03;101053.16;5018826;28;51260;-58
2021/09/27 07:37:46;;;;;;;;;5.00;5.00;;;;;23.24;54.92;101056.16;5030971;28;51279;-59
2021/09/27 07:40:16;;;;;;;;;5.75;4.00;;;;;23.25;54.76;101059.75;5021009;28;51964;-59
2021/09/27 07:42:42;;;;;;;;;5.75;5.75;;;;;23.25;54.82;101057.84;5019626;28;51157;-58
2021/09/27 07:45:11;;;;;;;;;4.00;4.00;;;;;23.25;54.65;101057.00;5020084;28;51074;-59
2021/09/27 07:47:37;;;;;;;;;6.00;3.00;;;;;23.24;54.82;101066.31;5030714;28;51104;-59
2021/09/27 07:50:04;;;;;;;;;6.75;4.25;;;;;23.24;54.64;101067.19;5015337;28;51864;-61
2021/09/27 07:52:30;;;;;;;;;5.00;4.00;;;;;23.24;54.57;101060.81;5014427;28;51379;-59
2021/09/27 07:54:55;;;;;;;;;5.00;5.00;;;;;23.24;55.11;101053.38;5017724;28;51293;-59
2021/09/27 07:57:20;;;;;;;;;4.50;4.00;;;;;23.23;54.85;101061.88;5031327;28;51257;-59
2021/09/27 07:59:47;;;;;;;;;3.25;3.25;;;;;23.23;54.96;101053.59;5031884;28;51173;-59
2021/09/27 08:02:18;;;;;;;;;3.75;3.50;;;;;23.23;55.14;101048.06;5022258;28;51655;-58
2021/09/27 08:04:43;;;;;;;;;4.25;3.25;;;;;23.24;55.16;101052.50;5015613;28;51162;-59
2021/09/27 08:07:09;;;;;;;;;3.25;3.00;;;;;23.23;55.07;101056.34;5020852;28;51122;-59
2021/09/27 08:09:34;;;;;;;;;5.50;5.50;;;;;23.22;54.98;101061.03;5014368;28;51155;-59
2021/09/27 08:11:59;;;;;;;;;4.75;3.75;;;;;23.22;54.64;101054.66;5014495;28;51116;-58
2021/09/27 08:14:25;;;;;;;;;4.00;3.25;;;;;23.22;54.91;101057.44;5016624;28;51074;-58
2021/09/27 08:16:50;;;;;;;;;6.25;5.50;;;;;23.23;54.90;101059.13;5031921;28;50965;-58
2021/09/27 08:19:18;;;;;;;;;3.50;3.50;;;;;23.24;55.15;101063.56;5024868;28;51155;-58
2021/09/27 08:21:43;;;;;;;;;4.50;4.50;;;;;23.23;55.13;101067.41;5030353;28;51124;-58
2021/09/27 08:24:09;;;;;;;;;4.00;4.00;;;;;23.23;54.84;101075.69;5032970;28;51249;-58
2021/09/27 08:26:34;;;;;;;;;4.00;4.00;;;;;23.23;55.09;101067.41;5019200;28;51107;-58
2021/09/27 08:29:00;;;;;;;;;5.75;4.25;;;;;23.24;54.84;101071.84;5024238;28;51123;-58
2021/09/27 08:31:25;;;;;;;;;5.50;3.75;;;;;23.23;54.90;101054.44;5020283;28;51066;-58
2021/09/27 08:33:52;;;;;;;;;6.00;5.00;;;;;23.23;55.20;101059.97;5021626;28;51259;-58
2021/09/27 08:36:20;;;;;;;;;3.50;3.00;;;;;23.24;55.21;101066.31;5027452;28;51122;-58
2021/09/27 08:38:46;;;;;;;;;4.00;4.00;;;;;23.23;55.20;101059.97;5026711;28;51010;-58
2021/09/27 08:41:25;;;;;;;;;3.75;3.75;;;;;23.25;55.35;101055.06;5022965;28;51093;-59
2021/09/27 08:44:18;;;;;;;;;3.00;3.00;;;;;23.24;54.95;101053.38;5023544;28;52047;-59
2021/09/27 08:46:55;;;;;;;;;5.00;4.00;;;;;23.26;55.44;101048.47;5024664;28;52793;-56
2021/09/27 08:49:39;;;;;;;;;3.75;3.75;;;;;23.26;55.18;101051.22;5024612;28;51755;-58
2021/09/27 08:52:07;;;;;;;;;5.00;5.00;;;;;23.26;55.14;101048.47;5024649;28;51458;-59
2021/09/27 08:54:35;;;;;;;;;5.50;4.75;;;;;23.27;55.44;101049.31;5023776;28;52821;-59
2021/09/27 08:57:10;;;;;;;;;5.50;4.00;;;;;23.27;55.43;101041.84;5018649;28;51296;-57
2021/09/27 08:59:49;;;;;;;;;3.50;3.50;;;;;23.28;55.43;101042.69;5021505;28;52896;-58
2021/09/27 09:02:49;;;;;;;;;3.00;3.00;;;;;23.28;55.36;101043.53;5017602;28;51124;-59
2021/09/27 09:05:23;;;;;;;;;6.50;4.00;;;;;23.29;55.27;101044.38;5020381;28;51471;-59
2021/09/27 09:08:01;;;;;;;;;4.75;4.75;;;;;23.29;55.37;101028.63;5031562;28;51299;-59
2021/09/27 09:10:42;;;;;;;;;4.00;4.00;;;;;23.30;55.63;101024.78;5028998;28;52223;-56
2021/09/27 09:13:12;;;;;;;;;4.50;4.50;;;;;23.31;55.29;101032.00;5026007;28;51295;-58
2021/09/27 09:15:40;;;;;;;;;4.00;4.00;;;;;23.32;55.47;101038.38;5028221;28;51156;-58
2021/09/27 09:18:12;;;;;;;;;4.75;4.75;;;;;23.32;55.41;101041.13;5033032;28;51299;-59
2021/09/27 09:20:52;;;;;;;;;5.00;4.00;;;;;23.33;55.42;101042.81;5027544;28;51243;-58
2021/09/27 09:23:44;;;;;;;;;4.00;4.00;;;;;23.33;55.74;101035.34;5027431;28;51367;-58
2021/09/27 09:26:13;;;;;;;;;7.25;4.75;;;;;23.35;55.49;101048.97;5025548;28;51092;-58
2021/09/27 09:28:42;;;;;;;;;4.00;3.25;;;;;23.35;55.57;101039.84;5029675;28;51391;-59
2021/09/27 09:31:15;;;;;;;;;4.50;4.50;;;;;23.36;55.28;101030.47;5021807;28;51199;-58
2021/09/27 09:33:43;;;;;;;;;4.25;4.25;;;;;23.35;55.45;101032.38;5022631;28;51284;-58
2021/09/27 09:36:13;;;;;;;;;6.00;6.00;;;;;23.36;55.30;101024.94;5029211;28;51213;-58
2021/09/27 09:38:40;;;;;;;;;5.00;5.00;;;;;23.37;55.20;101015.56;5025054;28;51341;-58
2021/09/27 09:41:06;;;;;;;;;5.00;3.75;;;;;23.38;55.01;101028.28;5030760;28;51832;-58
2021/09/27 09:43:38;;;;;;;;;4.00;4.00;;;;;23.41;55.41;101034.19;5024789;28;51130;-58
2021/09/27 09:46:14;;;;;;;;;8.00;7.00;;;;;23.43;55.32;101034.78;5024283;28;51244;-57
2021/09/27 09:49:02;;;;;;;;;4.50;4.50;;;;;23.42;55.24;101049.69;5029938;28;50947;-57
2021/09/27 09:51:43;;;;;;;;;3.00;3.00;;;;;23.43;54.93;101032.00;5026511;28;51926;-57
2021/09/27 09:54:19;;;;;;;;;5.25;3.50;;;;;23.42;55.42;101033.09;5028402;28;51431;-58
2021/09/27 09:56:59;;;;;;;;;5.25;5.25;;;;;23.43;55.47;101047.75;5028439;28;51069;-57
2021/09/27 09:59:42;;;;;;;;;4.25;4.00;;;;;23.43;55.36;101032.00;5025450;28;51242;-58
2021/09/27 10:02:18;;;;;;;;;4.75;4.00;;;;;23.44;54.99;101055.81;5028945;28;52659;-58
2021/09/27 10:04:49;;;;;;;;;8.00;5.00;;;;;23.45;55.11;101049.22;5030515;28;51077;-58
2021/09/27 10:07:26;;;;;;;;;5.25;3.25;;;;;23.45;55.34;101043.69;5031193;28;51563;-58
2021/09/27 10:09:51;;;;;;;;;6.00;6.00;;;;;23.45;55.19;101038.16;5026182;28;51143;-58
2021/09/27 10:12:44;;;;;;;;;5.50;4.00;;;;;23.46;55.16;101042.63;5024792;28;51755;-58
2021/09/27 10:15:40;;;;;;;;;4.75;3.75;;;;;23.46;55.12;101039.84;5024019;28;51192;-58
2021/09/27 10:18:29;;;;;;;;;5.00;5.00;;;;;23.48;55.39;101050.66;5025957;28;51351;-57
2021/09/27 10:21:05;;;;;;;;;3.00;3.00;;;;;23.47;55.09;101043.47;5029875;28;51155;-57
2021/09/27 10:23:52;;;;;;;;;3.75;3.75;;;;;23.47;55.15;101055.34;5023887;28;51158;-59
2021/09/27 10:26:29;;;;;;;;;5.50;4.50;;;;;23.47;55.08;101038.78;5024949;28;51351;-59
2021/09/27 10:29:10;;;;;;;;;10.25;9.75;;;;;23.47;55.10;101038.78;5019516;28;51441;-59
2021/09/27 10:31:42;;;;;;;;;35.50;31.50;;;;;23.48;55.30;101045.97;5031844;28;51164;-58
2021/09/27 10:34:17;;;;;;;;;36.75;32.75;;;;;23.49;55.31;101050.44;5027393;28;51102;-59
2021/09/27 10:36:51;;;;;;;;;35.50;31.00;;;;;23.51;55.50;101044.66;5021783;28;51213;-58
2021/09/27 10:39:18;;;;;;;;;31.75;25.75;;;;;23.52;55.50;101065.69;5017092;28;52004;-59
2021/09/27 10:41:57;;;;;;;;;36.25;30.00;;;;;23.53;55.45;101062.69;5019050;28;51501;-58
2021/09/27 10:44:34;;;;;;;;;32.75;29.50;;;;;23.53;55.74;101065.44;5029721;28;52011;-58
2021/09/27 10:47:16;;;;;;;;;28.75;26.50;;;;;23.53;55.42;101068.22;5021441;28;51079;-58
2021/09/27 10:49:46;;;;;;;;;29.75;22.00;;;;;23.55;55.33;101062.44;5023566;28;51311;-58
2021/09/27 10:52:24;;;;;;;;;26.75;22.50;;;;;23.55;55.17;101063.31;5026966;28;51277;-59
2021/09/27 10:55:11;;;;;;;;;16.50;13.50;;;;;23.57;55.03;101065.84;5026562;28;51843;-58
2021/09/27 10:57:59;;;;;;;;;20.75;20.50;;;;;23.57;55.24;101061.16;5019369;28;51230;-57
2021/09/27 11:00:32;;;;;;;;;21.00;18.25;;;;;23.55;55.21;101057.78;5022175;28;51045;-57
2021/09/27 11:03:37;;;;;;;;;20.75;16.75;;;;;23.55;55.55;101057.78;5027374;28;51301;-58
2021/09/27 11:06:28;;;;;;;;;22.50;16.00;;;;;23.54;55.36;101064.38;5016169;28;51045;-58
2021/09/27 11:09:26;;;;;;;;;20.75;15.00;;;;;23.54;55.27;101072.66;5032081;28;51457;-58
2021/09/27 11:12:08;;;;;;;;;18.50;15.75;;;;;23.54;55.43;101072.66;5017909;28;51241;-58
2021/09/27 11:14:46;;;;;;;;;19.50;15.25;;;;;23.54;54.98;101072.66;5020607;28;51248;-60
2021/09/27 11:17:43;;;;;;;;;14.00;13.00;;;;;23.55;55.06;101062.44;5019331;28;51810;-59
2021/09/27 11:20:22;;;;;;;;;15.25;13.75;;;;;23.55;55.28;101062.44;5013943;28;51457;-59
2021/09/27 11:22:56;;;;;;;;;17.25;12.50;;;;;23.55;55.59;101067.97;5015280;28;51179;-59
2021/09/27 11:25:21;;;;;;;;;15.25;12.75;;;;;23.55;55.35;101067.97;5015801;28;51219;-59
2021/09/27 11:28:14;;;;;;;;;15.50;9.25;;;;;23.54;55.25;101139.03;5027487;28;51811;-59
2021/09/27 11:30:46;;;;;;;;;13.00;11.00;;;;;23.54;55.59;101180.50;5017092;28;50974;-59
2021/09/27 11:33:26;;;;;;;;;10.25;10.00;;;;;23.55;55.14;101187.75;5023164;28;51251;-59
2021/09/27 11:35:54;;;;;;;;;13.50;9.25;;;;;23.55;55.11;101184.97;5027028;28;51238;-58
2021/09/27 11:38:33;;;;;;;;;10.25;9.25;;;;;23.55;55.19;101182.22;5021230;28;52907;-58
2021/09/27 11:41:08;;;;;;;;;9.25;9.25;;;;;23.57;55.24;101193.03;5033057;28;51399;-59
2021/09/27 11:43:35;;;;;;;;;11.75;10.00;;;;;23.58;55.35;101201.13;5029637;28;50981;-59
2021/09/27 11:46:04;;;;;;;;;10.25;10.00;;;;;23.57;55.08;101202.19;5016753;28;51664;-58
2021/09/27 11:48:30;;;;;;;;;13.00;9.00;;;;;23.57;55.51;101216.00;5032234;28;51159;-58
2021/09/27 11:51:19;;;;;;;;;9.25;8.00;;;;;23.56;54.78;101214.31;5025481;28;51296;-60
2021/09/27 11:54:04;;;;;;;;;3.00;3.00;;;;;23.53;52.66;101209.22;5027108;28;51269;-60
2021/09/27 11:56:45;;;;;;;;;5.50;1.00;;;;;23.46;52.19;101211.28;5024879;28;51151;-60
2021/09/27 11:59:25;;;;;;;;;0.50;0.50;;;;;23.38;51.98;101217.13;5023954;28;51247;-60
2021/09/27 12:02:19;;;;;;;;;3.00;2.00;;;;;23.29;51.18;101226.78;5021531;28;51299;-60
2021/09/27 12:05:20;;;;;;;;;2.00;1.00;;;;;23.19;50.76;101220.97;5027585;28;51494;-60
2021/09/27 12:07:55;;;;;;;;;0.75;0.50;;;;;23.11;51.07;101232.31;5028055;28;51053;-60
2021/09/27 12:10:28;;;;;;;;;2.50;1.00;;;;;23.03;51.28;101236.22;5022437;28;51981;-60